createdAt,value
2018-08-27T00:00:54.032Z,86.47
2018-08-27T00:01:54.026Z,86.57
2018-08-27T00:02:54.021Z,85.90
2018-08-27T00:03:54.008Z,86.86
2018-08-27T00:04:54.000Z,87.24
2018-08-27T00:05:53.993Z,86.67
2018-08-27T00:06:53.984Z,86.57
2018-08-27T00:07:53.977Z,85.52
2018-08-27T00:08:53.968Z,85.52
2018-08-27T00:09:53.962Z,87.05
2018-08-27T00:10:53.953Z,87.43
2018-08-27T00:11:53.945Z,86.47
2018-08-27T00:12:53.937Z,84.95
2018-08-27T00:13:53.929Z,84.95
2018-08-27T00:14:53.922Z,83.75
2018-08-27T00:15:53.914Z,84.80
2018-08-27T00:16:53.907Z,85.14
2018-08-27T00:17:53.902Z,85.62
2018-08-27T00:18:53.891Z,85.05
2018-08-27T00:19:53.883Z,86.19
2018-08-27T00:20:53.876Z,84.52
2018-08-27T00:21:53.869Z,84.61
2018-08-27T00:22:53.860Z,84.42
2018-08-27T00:23:53.852Z,84.99
2018-08-27T00:24:53.845Z,84.99
2018-08-27T00:25:53.837Z,84.70
2018-08-27T00:26:53.828Z,83.75
2018-08-27T00:27:53.822Z,83.56
2018-08-27T00:28:53.814Z,84.03
2018-08-27T00:29:53.808Z,82.79
2018-08-27T00:30:53.800Z,83.37
2018-08-27T00:31:53.792Z,83.17
2018-08-27T00:32:53.784Z,83.08
2018-08-27T00:33:53.783Z,83.17
2018-08-27T00:34:53.773Z,81.93
2018-08-27T00:35:53.761Z,81.49
2018-08-27T00:36:53.755Z,82.35
2018-08-27T00:37:53.748Z,83.17
2018-08-27T00:38:53.739Z,84.03
2018-08-27T00:39:53.734Z,85.66
2018-08-27T00:40:53.724Z,86.76
2018-08-27T00:41:53.717Z,87.72
2018-08-27T00:42:53.711Z,88.68
2018-08-27T00:43:53.699Z,89.39
2018-08-27T00:44:53.693Z,89.78
2018-08-27T00:45:53.685Z,90.73
2018-08-27T00:46:53.676Z,90.35
2018-08-27T00:47:53.668Z,91.11
2018-08-27T00:48:53.660Z,90.25
2018-08-27T00:49:53.652Z,90.64
2018-08-27T00:50:53.643Z,91.40
2018-08-27T00:51:53.635Z,91.50
2018-08-27T00:52:53.629Z,92.16
2018-08-27T00:53:53.619Z,91.78
2018-08-27T00:54:53.614Z,92.26
2018-08-27T00:55:53.614Z,91.30
2018-08-27T00:56:53.596Z,92.07
2018-08-27T00:57:53.588Z,92.55
2018-08-27T00:58:53.579Z,93.60
2018-08-27T00:59:53.572Z,92.16
2018-08-27T01:00:53.563Z,91.78
2018-08-27T01:01:53.557Z,92.36
2018-08-27T01:02:53.548Z,93.41
2018-08-27T01:03:53.539Z,92.45
2018-08-27T01:04:53.532Z,92.26
2018-08-27T01:05:53.530Z,91.59
2018-08-27T01:06:53.515Z,90.83
2018-08-27T01:07:53.507Z,90.92
2018-08-27T01:08:53.501Z,90.59
2018-08-27T01:09:53.492Z,91.11
2018-08-27T01:10:53.484Z,89.73
2018-08-27T01:11:53.476Z,87.82
2018-08-27T01:12:53.469Z,88.01
2018-08-27T01:13:53.461Z,88.10
2018-08-27T01:14:53.454Z,87.62
2018-08-27T01:15:53.445Z,87.72
2018-08-27T01:16:53.438Z,87.82
2018-08-27T01:17:53.433Z,87.34
2018-08-27T01:18:53.421Z,87.05
2018-08-27T01:19:53.415Z,86.57
2018-08-27T01:20:53.407Z,87.05
2018-08-27T01:21:53.399Z,87.24
2018-08-27T01:22:53.391Z,86.96
2018-08-27T01:23:53.382Z,87.15
2018-08-27T01:24:53.376Z,86.80
2018-08-27T01:25:53.368Z,87.48
2018-08-27T01:26:53.360Z,87.48
2018-08-27T01:27:53.353Z,86.90
2018-08-27T01:28:53.345Z,86.80
2018-08-27T01:29:53.336Z,87.43
2018-08-27T01:30:53.330Z,87.29
2018-08-27T01:31:53.321Z,87.57
2018-08-27T01:32:53.315Z,87.29
2018-08-27T01:33:53.307Z,86.23
2018-08-27T01:34:53.299Z,86.33
2018-08-27T01:35:53.291Z,86.61
2018-08-27T01:36:53.287Z,86.80
2018-08-27T01:37:53.276Z,86.23
2018-08-27T01:38:53.268Z,86.80
2018-08-27T01:39:53.260Z,86.80
2018-08-27T01:40:53.254Z,86.14
2018-08-27T01:41:53.245Z,86.14
2018-08-27T01:42:53.238Z,86.52
2018-08-27T01:43:53.228Z,87.09
2018-08-27T01:44:53.222Z,87.57
2018-08-27T01:45:53.213Z,89.01
2018-08-27T01:46:53.204Z,89.73
2018-08-27T01:47:53.196Z,90.88
2018-08-27T01:48:53.189Z,90.68
2018-08-27T01:49:53.183Z,91.64
2018-08-27T01:50:53.174Z,92.40
2018-08-27T01:51:53.165Z,92.40
2018-08-27T01:52:53.157Z,91.25
2018-08-27T01:53:53.149Z,91.45
2018-08-27T01:54:53.140Z,91.54
2018-08-27T01:55:53.135Z,92.40
2018-08-27T01:56:53.126Z,91.64
2018-08-27T01:57:53.119Z,92.40
2018-08-27T01:58:53.110Z,92.30
2018-08-27T01:59:53.102Z,92.59
2018-08-27T02:00:53.094Z,92.21
2018-08-27T02:01:53.088Z,92.79
2018-08-27T02:02:53.078Z,92.30
2018-08-27T02:03:53.071Z,92.79
2018-08-27T02:04:53.061Z,93.65
2018-08-27T02:05:53.053Z,93.36
2018-08-27T02:06:53.046Z,93.55
2018-08-27T02:07:53.038Z,92.50
2018-08-27T02:08:53.031Z,92.30
2018-08-27T02:09:53.022Z,93.26
2018-08-27T02:10:53.014Z,92.97
2018-08-27T02:11:53.007Z,92.40
2018-08-27T02:12:52.997Z,92.30
2018-08-27T02:13:52.993Z,92.69
2018-08-27T02:14:52.986Z,92.40
2018-08-27T02:15:52.976Z,93.16
2018-08-27T02:16:52.966Z,94.60
2018-08-27T02:17:52.960Z,94.51
2018-08-27T02:18:53.200Z,94.60
2018-08-27T02:19:52.942Z,95.27
2018-08-27T02:20:52.943Z,94.89
2018-08-27T02:21:52.931Z,95.56
2018-08-27T02:22:52.920Z,96.03
2018-08-27T02:23:52.912Z,95.56
2018-08-27T02:24:52.904Z,96.03
2018-08-27T02:25:52.928Z,96.13
2018-08-27T02:26:52.888Z,96.61
2018-08-27T02:27:52.879Z,96.99
2018-08-27T02:28:52.872Z,96.70
2018-08-27T02:29:52.865Z,96.32
2018-08-27T02:30:52.857Z,96.51
2018-08-27T02:31:52.849Z,96.61
2018-08-27T02:32:52.841Z,96.61
2018-08-27T02:33:52.833Z,97.18
2018-08-27T02:34:52.835Z,97.56
2018-08-27T02:35:52.819Z,97.75
2018-08-27T02:36:52.808Z,98.42
2018-08-27T02:37:52.802Z,98.99
2018-08-27T02:38:52.794Z,99.85
2018-08-27T02:39:52.788Z,99.99
2018-08-27T02:40:52.777Z,99.99
2018-08-27T02:41:52.769Z,99.99
2018-08-27T02:42:52.760Z,99.99
2018-08-27T02:43:52.752Z,99.99
2018-08-27T02:44:52.747Z,99.99
2018-08-27T02:45:52.737Z,99.99
2018-08-27T02:46:52.728Z,99.99
2018-08-27T02:47:52.722Z,99.99
2018-08-27T02:48:52.713Z,99.99
2018-08-27T02:49:52.706Z,99.99
2018-08-27T02:50:52.696Z,99.99
2018-08-27T02:51:52.687Z,99.99
2018-08-27T02:52:52.680Z,99.99
2018-08-27T02:53:52.673Z,99.99
2018-08-27T02:54:52.664Z,99.99
2018-08-27T02:55:52.656Z,99.99
2018-08-27T02:56:52.649Z,99.99
2018-08-27T02:57:52.642Z,99.99
2018-08-27T02:58:52.631Z,99.99
2018-08-27T02:59:52.624Z,99.99
2018-08-27T03:00:52.617Z,99.99
2018-08-27T03:01:52.610Z,99.99
2018-08-27T03:02:52.597Z,99.99
2018-08-27T03:03:52.590Z,99.99
2018-08-27T03:04:52.582Z,99.99
2018-08-27T03:05:52.576Z,99.99
2018-08-27T03:06:52.566Z,99.99
2018-08-27T03:07:52.560Z,99.99
2018-08-27T03:08:52.549Z,99.99
2018-08-27T03:09:52.541Z,99.99
2018-08-27T03:10:52.532Z,99.99
2018-08-27T03:11:52.524Z,99.99
2018-08-27T03:12:52.515Z,99.99
2018-08-27T03:13:52.509Z,99.99
2018-08-27T03:14:52.500Z,99.99
2018-08-27T03:15:52.492Z,99.99
2018-08-27T03:16:52.484Z,99.99
2018-08-27T03:17:52.476Z,99.99
2018-08-27T03:18:52.468Z,99.99
2018-08-27T03:19:52.458Z,99.99
2018-08-27T03:20:52.450Z,99.99
2018-08-27T03:21:52.445Z,99.99
2018-08-27T03:22:52.434Z,99.99
2018-08-27T03:23:52.427Z,99.99
2018-08-27T03:24:52.421Z,99.99
2018-08-27T03:25:52.411Z,99.99
2018-08-27T03:26:52.448Z,99.99
2018-08-27T03:27:52.394Z,99.99
2018-08-27T03:28:52.387Z,99.99
2018-08-27T03:29:52.378Z,99.99
2018-08-27T03:30:52.378Z,99.99
2018-08-27T03:31:52.362Z,99.99
2018-08-27T03:32:52.356Z,99.99
2018-08-27T03:33:52.347Z,99.99
2018-08-27T03:34:52.338Z,99.99
2018-08-27T03:35:52.330Z,99.99
2018-08-27T03:36:52.322Z,99.99
2018-08-27T03:37:52.314Z,99.99
2018-08-27T03:38:52.306Z,99.99
2018-08-27T03:39:52.298Z,99.99
2018-08-27T03:40:52.291Z,99.99
2018-08-27T03:41:52.283Z,99.99
2018-08-27T03:42:52.274Z,99.99
2018-08-27T03:43:52.268Z,99.99
2018-08-27T03:44:52.259Z,99.99
2018-08-27T03:45:52.253Z,99.99
2018-08-27T03:46:52.244Z,99.99
2018-08-27T03:47:52.238Z,99.99
2018-08-27T03:48:52.231Z,99.99
2018-08-27T03:49:52.221Z,99.99
2018-08-27T03:50:52.212Z,99.99
2018-08-27T03:51:52.204Z,99.99
2018-08-27T03:52:52.197Z,99.99
2018-08-27T03:53:52.191Z,99.99
2018-08-27T03:54:52.181Z,99.99
2018-08-27T03:55:52.174Z,99.99
2018-08-27T03:56:52.168Z,99.99
2018-08-27T03:57:52.160Z,99.99
2018-08-27T03:58:52.150Z,99.99
2018-08-27T03:59:52.142Z,99.99
2018-08-27T04:00:52.135Z,99.99
2018-08-27T04:01:52.129Z,99.99
2018-08-27T04:02:52.119Z,99.99
2018-08-27T04:03:52.114Z,99.99
2018-08-27T04:04:52.105Z,99.99
2018-08-27T04:05:52.098Z,99.99
2018-08-27T04:06:52.088Z,99.99
2018-08-27T04:07:52.081Z,99.99
2018-08-27T04:08:52.074Z,99.99
2018-08-27T04:09:52.067Z,99.99
2018-08-27T04:10:52.057Z,99.99
2018-08-27T04:11:52.051Z,99.99
2018-08-27T04:12:52.043Z,99.99
2018-08-27T04:13:52.040Z,99.99
2018-08-27T04:14:52.026Z,99.99
2018-08-27T04:15:52.020Z,99.99
2018-08-27T04:16:52.012Z,99.99
2018-08-27T04:17:52.005Z,99.99
2018-08-27T04:18:51.997Z,99.99
2018-08-27T04:19:51.991Z,99.99
2018-08-27T04:20:51.982Z,99.99
2018-08-27T04:21:51.976Z,99.99
2018-08-27T04:22:51.969Z,99.99
2018-08-27T04:23:51.959Z,99.99
2018-08-27T04:24:51.953Z,99.99
2018-08-27T04:25:51.946Z,99.99
2018-08-27T04:26:51.938Z,99.99
2018-08-27T04:27:51.930Z,99.99
2018-08-27T04:28:52.031Z,99.99
2018-08-27T04:29:51.920Z,99.99
2018-08-27T04:30:51.908Z,99.99
2018-08-27T04:31:51.906Z,99.99
2018-08-27T04:32:51.895Z,99.99
2018-08-27T04:33:51.886Z,99.99
2018-08-27T04:34:51.938Z,99.99
2018-08-27T04:35:51.870Z,99.99
2018-08-27T04:36:51.863Z,99.99
2018-08-27T04:37:51.857Z,99.99
2018-08-27T04:38:51.848Z,99.99
2018-08-27T04:39:51.841Z,99.99
2018-08-27T04:40:51.833Z,99.99
2018-08-27T04:41:51.827Z,99.99
2018-08-27T04:42:51.820Z,99.99
2018-08-27T04:43:51.812Z,99.99
2018-08-27T04:44:51.806Z,99.99
2018-08-27T04:45:51.799Z,99.99
2018-08-27T04:46:51.854Z,99.99
2018-08-27T04:47:51.783Z,99.99
2018-08-27T04:48:51.776Z,99.99
2018-08-27T04:49:51.770Z,99.99
2018-08-27T04:50:51.761Z,99.99
2018-08-27T04:51:51.754Z,99.99
2018-08-27T04:52:51.750Z,99.99
2018-08-27T04:53:51.743Z,99.99
2018-08-27T04:54:51.733Z,99.99
2018-08-27T04:55:51.726Z,99.99
2018-08-27T04:56:51.720Z,99.99
2018-08-27T04:57:51.712Z,99.99
2018-08-27T04:58:51.705Z,99.99
2018-08-27T04:59:51.697Z,99.99
2018-08-27T05:00:51.690Z,99.99
2018-08-27T05:01:51.683Z,99.99
2018-08-27T05:02:51.679Z,99.99
2018-08-27T05:03:51.673Z,99.99
2018-08-27T05:04:51.670Z,99.99
2018-08-27T05:05:51.656Z,99.99
2018-08-27T05:06:51.647Z,99.99
2018-08-27T05:07:51.642Z,99.99
2018-08-27T05:08:51.637Z,99.99
2018-08-27T05:09:51.627Z,99.99
2018-08-27T05:10:51.620Z,99.99
2018-08-27T05:11:51.618Z,99.99
2018-08-27T05:12:51.606Z,99.99
2018-08-27T05:13:51.599Z,99.99
2018-08-27T05:14:51.592Z,99.99
2018-08-27T05:15:51.586Z,99.99
2018-08-27T05:16:51.578Z,99.99
2018-08-27T05:17:51.572Z,99.99
2018-08-27T05:18:51.564Z,99.99
2018-08-27T05:19:51.559Z,99.99
2018-08-27T05:20:51.550Z,99.99
2018-08-27T05:21:51.544Z,99.99
2018-08-27T05:22:51.535Z,99.99
2018-08-27T05:23:51.532Z,99.99
2018-08-27T05:24:51.523Z,99.99
2018-08-27T05:25:51.516Z,99.99
2018-08-27T05:26:51.508Z,99.99
2018-08-27T05:27:51.502Z,99.99
2018-08-27T05:28:51.494Z,99.99
2018-08-27T05:29:51.487Z,99.99
2018-08-27T05:30:51.539Z,99.99
2018-08-27T05:31:51.472Z,99.99
2018-08-27T05:32:51.465Z,99.99
2018-08-27T05:33:51.465Z,99.99
2018-08-27T05:34:51.452Z,99.99
2018-08-27T05:35:51.446Z,99.99
2018-08-27T05:36:51.441Z,99.99
2018-08-27T05:37:51.436Z,99.99
2018-08-27T05:38:51.423Z,99.99
2018-08-27T05:39:51.418Z,99.99
2018-08-27T05:40:51.411Z,99.99
2018-08-27T05:41:51.404Z,99.99
2018-08-27T05:42:51.647Z,99.99
2018-08-27T05:43:51.389Z,99.99
2018-08-27T05:44:51.384Z,99.99
2018-08-27T05:45:51.377Z,99.99
2018-08-27T05:46:51.370Z,99.99
2018-08-27T05:47:51.401Z,99.99
2018-08-27T05:48:51.357Z,99.99
2018-08-27T05:49:51.349Z,99.99
2018-08-27T05:50:51.342Z,99.99
2018-08-27T05:51:51.335Z,99.99
2018-08-27T05:52:51.330Z,99.99
2018-08-27T05:53:51.323Z,99.99
2018-08-27T05:54:51.314Z,99.99
2018-08-27T05:55:51.308Z,99.99
2018-08-27T05:56:51.303Z,99.48
2018-08-27T05:57:51.295Z,99.58
2018-08-27T05:58:51.292Z,99.99
2018-08-27T05:59:51.281Z,99.67
2018-08-27T06:00:51.276Z,99.00
2018-08-27T06:01:51.338Z,99.10
2018-08-27T06:02:51.261Z,99.38
2018-08-27T06:03:51.255Z,99.48
2018-08-27T06:04:51.248Z,99.38
2018-08-27T06:05:51.241Z,99.00
2018-08-27T06:06:51.237Z,98.33
2018-08-27T06:07:51.227Z,98.33
2018-08-27T06:08:51.223Z,99.19
2018-08-27T06:09:51.217Z,99.99
2018-08-27T06:10:51.207Z,99.87
2018-08-27T06:11:51.200Z,99.99
2018-08-27T06:12:51.194Z,99.96
2018-08-27T06:13:51.188Z,99.99
2018-08-27T06:14:51.183Z,99.99
2018-08-27T06:15:51.175Z,99.99
2018-08-27T06:16:51.167Z,99.99
2018-08-27T06:17:51.160Z,99.87
2018-08-27T06:18:51.153Z,99.99
2018-08-27T06:19:51.148Z,99.38
2018-08-27T06:20:51.140Z,99.10
2018-08-27T06:21:51.150Z,99.00
2018-08-27T06:22:51.126Z,98.71
2018-08-27T06:23:51.120Z,98.43
2018-08-27T06:24:51.114Z,98.33
2018-08-27T06:25:51.106Z,98.47
2018-08-27T06:26:51.100Z,98.19
2018-08-27T06:27:51.093Z,97.66
2018-08-27T06:28:51.086Z,97.23
2018-08-27T06:29:51.081Z,96.66
2018-08-27T06:30:51.074Z,97.04
2018-08-27T06:31:51.066Z,97.71
2018-08-27T06:32:51.060Z,96.56
2018-08-27T06:33:51.054Z,96.94
2018-08-27T06:34:51.055Z,96.84
2018-08-27T06:35:51.040Z,96.66
2018-08-27T06:36:51.035Z,96.56
2018-08-27T06:37:51.070Z,96.66
2018-08-27T06:38:51.020Z,96.47
2018-08-27T06:39:51.013Z,96.66
2018-08-27T06:40:51.008Z,96.18
2018-08-27T06:41:51.002Z,95.60
2018-08-27T06:42:50.994Z,95.79
2018-08-27T06:43:50.990Z,96.47
2018-08-27T06:44:50.982Z,96.13
2018-08-27T06:45:50.978Z,95.46
2018-08-27T06:46:50.970Z,94.84
2018-08-27T06:47:50.971Z,94.40
2018-08-27T06:48:50.960Z,95.75
2018-08-27T06:49:50.953Z,94.98
2018-08-27T06:50:50.945Z,95.65
2018-08-27T06:51:50.942Z,95.07
2018-08-27T06:52:50.934Z,95.17
2018-08-27T06:53:50.930Z,95.75
2018-08-27T06:54:50.925Z,95.26
2018-08-27T06:55:50.917Z,94.79
2018-08-27T06:56:50.957Z,94.79
2018-08-27T06:57:50.905Z,94.98
2018-08-27T06:58:50.898Z,94.69
2018-08-27T06:59:50.893Z,94.59
2018-08-27T07:00:50.887Z,94.21
2018-08-27T07:01:50.885Z,94.79
2018-08-27T07:02:50.877Z,94.79
2018-08-27T07:03:50.870Z,94.89
2018-08-27T07:04:50.863Z,94.69
2018-08-27T07:05:50.859Z,94.98
2018-08-27T07:06:50.851Z,94.79
2018-08-27T07:07:50.847Z,94.59
2018-08-27T07:08:50.841Z,94.21
2018-08-27T07:09:50.836Z,94.69
2018-08-27T07:10:50.828Z,94.40
2018-08-27T07:11:50.917Z,94.21
2018-08-27T07:12:50.820Z,94.98
2018-08-27T07:13:50.812Z,93.54
2018-08-27T07:14:50.806Z,92.87
2018-08-27T07:15:50.800Z,93.49
2018-08-27T07:16:50.797Z,92.82
2018-08-27T07:17:50.789Z,93.49
2018-08-27T07:18:50.808Z,93.01
2018-08-27T07:19:50.778Z,93.21
2018-08-27T07:20:50.779Z,92.91
2018-08-27T07:21:50.770Z,92.54
2018-08-27T07:22:50.762Z,92.72
2018-08-27T07:23:50.756Z,92.72
2018-08-27T07:24:50.757Z,92.72
2018-08-27T07:25:50.748Z,92.91
2018-08-27T07:26:50.745Z,92.91
2018-08-27T07:27:50.738Z,92.82
2018-08-27T07:28:50.732Z,93.11
2018-08-27T07:29:50.727Z,92.24
2018-08-27T07:30:50.720Z,92.15
2018-08-27T07:31:50.717Z,92.44
2018-08-27T07:32:50.711Z,92.24
2018-08-27T07:33:50.707Z,91.62
2018-08-27T07:34:50.701Z,90.95
2018-08-27T07:35:50.697Z,91.14
2018-08-27T07:36:50.693Z,91.33
2018-08-27T07:37:50.688Z,90.47
2018-08-27T07:38:50.684Z,90.18
2018-08-27T07:39:50.678Z,90.47
2018-08-27T07:40:50.677Z,91.05
2018-08-27T07:41:50.670Z,91.14
2018-08-27T07:42:50.672Z,90.85
2018-08-27T07:43:50.661Z,90.37
2018-08-27T07:44:50.657Z,91.14
2018-08-27T07:45:50.654Z,91.14
2018-08-27T07:46:50.647Z,90.85
2018-08-27T07:47:50.643Z,91.33
2018-08-27T07:48:50.640Z,90.81
2018-08-27T07:49:50.636Z,91.48
2018-08-27T07:50:50.630Z,91.91
2018-08-27T07:51:50.626Z,90.95
2018-08-27T07:52:50.620Z,90.85
2018-08-27T07:53:50.615Z,91.52
2018-08-27T07:54:50.611Z,91.42
2018-08-27T07:55:50.605Z,91.57
2018-08-27T07:56:50.601Z,92.05
2018-08-27T07:57:50.599Z,91.67
2018-08-27T07:58:50.591Z,92.15
2018-08-27T07:59:50.591Z,92.15
2018-08-27T08:00:50.582Z,92.24
2018-08-27T08:01:50.582Z,92.15
2018-08-27T08:02:50.571Z,92.05
2018-08-27T08:03:50.569Z,92.34
2018-08-27T08:04:50.562Z,91.38
2018-08-27T08:05:50.558Z,91.67
2018-08-27T08:06:50.551Z,92.05
2018-08-27T08:07:50.547Z,91.28
2018-08-27T08:08:50.543Z,91.67
2018-08-27T08:09:50.537Z,91.52
2018-08-27T08:10:50.533Z,91.14
2018-08-27T08:11:50.527Z,90.95
2018-08-27T08:12:50.524Z,90.37
2018-08-27T08:13:50.518Z,90.66
2018-08-27T08:14:50.514Z,90.56
2018-08-27T08:15:50.509Z,89.89
2018-08-27T08:16:50.506Z,89.46
2018-08-27T08:17:50.501Z,88.79
2018-08-27T08:18:50.497Z,88.21
2018-08-27T08:19:50.493Z,88.49
2018-08-27T08:20:50.491Z,88.06
2018-08-27T08:21:50.488Z,88.06
2018-08-27T08:22:50.540Z,87.87
2018-08-27T08:23:50.482Z,87.96
2018-08-27T08:24:50.479Z,87.96
2018-08-27T08:25:50.475Z,87.87
2018-08-27T08:26:50.472Z,88.40
2018-08-27T08:27:50.469Z,88.49
2018-08-27T08:28:50.467Z,88.40
2018-08-27T08:29:50.466Z,88.40
2018-08-27T08:30:50.459Z,88.40
2018-08-27T08:31:50.456Z,88.45
2018-08-27T08:32:50.454Z,88.16
2018-08-27T08:33:50.453Z,87.19
2018-08-27T08:34:50.448Z,87.29
2018-08-27T08:35:50.448Z,87.10
2018-08-27T08:36:50.445Z,86.85
2018-08-27T08:37:50.444Z,86.57
2018-08-27T08:38:50.441Z,85.75
2018-08-27T08:39:50.496Z,85.75
2018-08-27T08:40:50.440Z,86.04
2018-08-27T08:41:50.439Z,85.84
2018-08-27T08:42:50.437Z,85.07
2018-08-27T08:43:50.437Z,84.63
2018-08-27T08:44:50.437Z,83.77
2018-08-27T08:45:50.441Z,83.86
2018-08-27T08:46:50.439Z,83.53
2018-08-27T08:47:50.440Z,83.63
2018-08-27T08:48:50.439Z,83.63
2018-08-27T08:49:50.438Z,84.59
2018-08-27T08:50:50.438Z,84.83
2018-08-27T08:51:50.437Z,84.73
2018-08-27T08:52:50.437Z,84.10
2018-08-27T08:53:50.440Z,82.37
2018-08-27T08:54:50.442Z,82.27
2018-08-27T08:55:50.445Z,81.98
2018-08-27T08:56:50.446Z,82.27
2018-08-27T08:57:50.448Z,81.60
2018-08-27T08:58:50.445Z,81.07
2018-08-27T08:59:50.444Z,81.84
2018-08-27T09:00:50.457Z,81.65
2018-08-27T09:01:50.448Z,81.30
2018-08-27T09:02:50.447Z,80.92
2018-08-27T09:03:50.448Z,81.12
2018-08-27T09:04:50.449Z,80.96
2018-08-27T09:05:50.451Z,80.15
2018-08-27T09:06:50.455Z,80.63
2018-08-27T09:07:50.454Z,80.35
2018-08-27T09:08:50.486Z,80.73
2018-08-27T09:09:50.457Z,80.83
2018-08-27T09:10:50.453Z,80.98
2018-08-27T09:11:50.453Z,81.27
2018-08-27T09:12:50.453Z,82.14
2018-08-27T09:13:50.454Z,81.84
2018-08-27T09:14:50.456Z,82.71
2018-08-27T09:15:50.451Z,82.32
2018-08-27T09:16:50.610Z,82.38
2018-08-27T09:17:50.454Z,82.19
2018-08-27T09:18:50.448Z,82.29
2018-08-27T09:19:50.445Z,83.06
2018-08-27T09:20:50.444Z,83.34
2018-08-27T09:21:50.442Z,82.48
2018-08-27T09:22:50.439Z,82.81
2018-08-27T09:23:50.551Z,82.46
2018-08-27T09:24:50.437Z,82.08
2018-08-27T09:25:50.438Z,80.29
2018-08-27T09:26:50.435Z,79.71
2018-08-27T09:27:50.441Z,80.33
2018-08-27T09:28:50.435Z,78.40
2018-08-27T09:29:50.436Z,78.92
2018-08-27T09:30:50.439Z,78.34
2018-08-27T09:31:50.443Z,78.59
2018-08-27T09:32:50.439Z,78.85
2018-08-27T09:33:50.440Z,79.33
2018-08-27T09:34:50.439Z,78.81
2018-08-27T09:35:50.440Z,79.48
2018-08-27T09:36:50.465Z,80.30
2018-08-27T09:37:50.441Z,81.37
2018-08-27T09:38:50.437Z,81.75
2018-08-27T09:39:50.438Z,81.27
2018-08-27T09:40:50.437Z,81.23
2018-08-27T09:41:50.435Z,81.81
2018-08-27T09:42:50.434Z,81.61
2018-08-27T09:43:50.432Z,81.61
2018-08-27T09:44:50.430Z,81.07
2018-08-27T09:45:50.488Z,81.94
2018-08-27T09:46:50.479Z,81.13
2018-08-27T09:47:50.423Z,81.23
2018-08-27T09:48:50.423Z,81.52
2018-08-27T09:49:50.420Z,81.23
2018-08-27T09:50:50.417Z,80.98
2018-08-27T09:51:50.415Z,80.94
2018-08-27T09:52:50.477Z,80.36
2018-08-27T09:53:50.411Z,81.37
2018-08-27T09:54:50.417Z,80.65
2018-08-27T09:55:50.407Z,80.60
2018-08-27T09:56:50.405Z,81.37
2018-08-27T09:57:50.406Z,79.92
2018-08-27T09:58:50.567Z,79.38
2018-08-27T09:59:50.400Z,79.10
2018-08-27T10:00:50.399Z,78.17
2018-08-27T10:01:50.399Z,77.88
2018-08-27T10:02:50.398Z,77.53
2018-08-27T10:03:50.399Z,77.06
2018-08-27T10:04:50.401Z,77.38
2018-08-27T10:05:50.404Z,75.74
2018-08-27T10:06:50.404Z,74.78
2018-08-27T10:07:50.411Z,75.45
2018-08-27T10:08:50.412Z,75.36
2018-08-27T10:09:50.413Z,74.82
2018-08-27T10:10:50.417Z,74.43
2018-08-27T10:11:50.419Z,73.95
2018-08-27T10:12:50.424Z,74.05
2018-08-27T10:13:50.427Z,74.24
2018-08-27T10:14:50.462Z,73.85
2018-08-27T10:15:50.440Z,73.47
2018-08-27T10:16:50.440Z,72.69
2018-08-27T10:17:50.445Z,72.60
2018-08-27T10:18:50.450Z,72.44
2018-08-27T10:19:50.454Z,71.38
2018-08-27T10:20:50.460Z,71.09
2018-08-27T10:21:50.464Z,69.93
2018-08-27T10:22:50.469Z,70.70
2018-08-27T10:23:50.474Z,70.76
2018-08-27T10:24:50.481Z,71.44
2018-08-27T10:25:50.485Z,72.41
2018-08-27T10:26:50.487Z,71.98
2018-08-27T10:27:50.491Z,72.37
2018-08-27T10:28:50.494Z,72.08
2018-08-27T10:29:50.578Z,72.08
2018-08-27T10:30:50.500Z,72.31
2018-08-27T10:31:50.506Z,70.90
2018-08-27T10:32:50.516Z,69.45
2018-08-27T10:33:50.511Z,68.59
2018-08-27T10:34:50.514Z,66.97
2018-08-27T10:35:50.519Z,68.23
2018-08-27T10:36:50.525Z,66.97
2018-08-27T10:37:50.531Z,64.95
2018-08-27T10:38:50.534Z,65.14
2018-08-27T10:39:50.542Z,65.37
2018-08-27T10:40:50.546Z,63.73
2018-08-27T10:41:50.802Z,62.95
2018-08-27T10:42:50.602Z,63.43
2018-08-27T10:43:50.563Z,60.06
2018-08-27T10:44:50.567Z,60.41
2018-08-27T10:45:50.573Z,60.41
2018-08-27T10:46:50.577Z,59.61
2018-08-27T10:47:50.583Z,60.19
2018-08-27T10:48:50.587Z,59.52
2018-08-27T10:49:50.593Z,60.68
2018-08-27T10:50:50.594Z,60.86
2018-08-27T10:51:50.598Z,60.38
2018-08-27T10:52:50.601Z,61.83
2018-08-27T10:53:50.604Z,62.02
2018-08-27T10:54:50.606Z,60.28
2018-08-27T10:55:50.607Z,60.28
2018-08-27T10:56:50.615Z,61.16
2018-08-27T10:57:50.613Z,60.35
2018-08-27T10:58:50.615Z,60.10
2018-08-27T10:59:50.618Z,60.38
2018-08-27T11:00:50.618Z,60.58
2018-08-27T11:01:50.622Z,60.28
2018-08-27T11:02:50.624Z,60.10
2018-08-27T11:03:50.625Z,60.00
2018-08-27T11:04:50.627Z,60.45
2018-08-27T11:05:50.630Z,60.74
2018-08-27T11:06:50.629Z,61.48
2018-08-27T11:07:50.632Z,62.35
2018-08-27T11:08:50.632Z,62.86
2018-08-27T11:09:50.635Z,62.76
2018-08-27T11:10:50.780Z,62.18
2018-08-27T11:11:50.636Z,62.57
2018-08-27T11:12:50.639Z,63.24
2018-08-27T11:13:50.638Z,62.96
2018-08-27T11:14:50.636Z,63.67
2018-08-27T11:15:50.638Z,63.76
2018-08-27T11:16:50.638Z,62.89
2018-08-27T11:17:50.639Z,62.09
2018-08-27T11:18:50.639Z,63.06
2018-08-27T11:19:50.662Z,62.96
2018-08-27T11:20:50.644Z,63.54
2018-08-27T11:21:50.642Z,64.18
2018-08-27T11:22:50.642Z,64.31
2018-08-27T11:23:50.648Z,64.50
2018-08-27T11:24:50.644Z,63.24
2018-08-27T11:25:50.642Z,64.11
2018-08-27T11:26:50.642Z,62.86
2018-08-27T11:27:50.643Z,63.06
2018-08-27T11:28:50.643Z,63.09
2018-08-27T11:29:50.645Z,60.13
2018-08-27T11:30:50.644Z,57.90
2018-08-27T11:31:50.646Z,56.33
2018-08-27T11:32:50.682Z,56.04
2018-08-27T11:33:50.653Z,55.73
2018-08-27T11:34:50.649Z,55.66
2018-08-27T11:35:50.648Z,57.29
2018-08-27T11:36:50.651Z,56.04
2018-08-27T11:37:50.655Z,56.30
2018-08-27T11:38:50.652Z,56.69
2018-08-27T11:39:50.652Z,57.07
2018-08-27T11:40:50.655Z,56.88
2018-08-27T11:41:50.676Z,57.10
2018-08-27T11:42:50.653Z,57.10
2018-08-27T11:43:50.656Z,56.72
2018-08-27T11:44:50.656Z,56.49
2018-08-27T11:45:50.655Z,57.07
2018-08-27T11:46:50.656Z,57.75
2018-08-27T11:47:50.655Z,58.42
2018-08-27T11:48:50.655Z,56.72
2018-08-27T11:49:50.657Z,56.04
2018-08-27T11:50:50.776Z,56.81
2018-08-27T11:51:50.660Z,56.62
2018-08-27T11:52:50.661Z,56.56
2018-08-27T11:53:50.658Z,56.36
2018-08-27T11:54:50.733Z,55.94
2018-08-27T11:55:50.660Z,56.04
2018-08-27T11:56:50.661Z,56.52
2018-08-27T11:57:50.662Z,56.04
2018-08-27T11:58:50.669Z,56.36
2018-08-27T11:59:50.665Z,55.90
2018-08-27T12:00:50.686Z,55.26
2018-08-27T12:01:50.669Z,53.71
2018-08-27T12:02:50.672Z,53.81
2018-08-27T12:03:50.677Z,52.55
2018-08-27T12:04:50.678Z,53.81
2018-08-27T12:05:50.681Z,54.00
2018-08-27T12:06:50.684Z,53.74
2018-08-27T12:07:50.690Z,53.64
2018-08-27T12:08:50.705Z,53.28
2018-08-27T12:09:50.700Z,52.24
2018-08-27T12:10:50.701Z,50.40
2018-08-27T12:11:50.709Z,49.80
2018-08-27T12:12:50.714Z,51.35
2018-08-27T12:13:50.718Z,50.76
2018-08-27T12:14:50.727Z,52.41
2018-08-27T12:15:50.731Z,52.31
2018-08-27T12:16:50.787Z,52.02
2018-08-27T12:17:50.745Z,52.73
2018-08-27T12:18:50.745Z,51.37
2018-08-27T12:19:50.751Z,50.98
2018-08-27T12:20:50.760Z,51.28
2018-08-27T12:21:50.763Z,52.12
2018-08-27T12:22:50.769Z,52.02
2018-08-27T12:23:50.791Z,52.31
2018-08-27T12:24:50.783Z,51.35
2018-08-27T12:25:50.785Z,51.06
2018-08-27T12:26:50.790Z,50.74
2018-08-27T12:27:50.795Z,52.87
2018-08-27T12:28:50.799Z,53.33
2018-08-27T12:29:50.805Z,53.74
2018-08-27T12:30:50.823Z,53.86
2018-08-27T12:31:50.812Z,52.70
2018-08-27T12:32:50.815Z,53.38
2018-08-27T12:33:50.826Z,51.37
2018-08-27T12:34:50.822Z,51.18
2018-08-27T12:35:50.826Z,51.83
2018-08-27T12:36:50.830Z,52.80
2018-08-27T12:37:50.934Z,52.19
2018-08-27T12:38:50.838Z,52.41
2018-08-27T12:39:50.844Z,51.15
2018-08-27T12:40:50.857Z,52.00
2018-08-27T12:41:50.849Z,52.65
2018-08-27T12:42:50.851Z,53.13
2018-08-27T12:43:50.856Z,53.61
2018-08-27T12:44:50.858Z,53.49
2018-08-27T12:45:50.861Z,53.97
2018-08-27T12:46:50.865Z,53.78
2018-08-27T12:47:50.865Z,54.05
2018-08-27T12:48:50.868Z,55.40
2018-08-27T12:49:50.869Z,55.30
2018-08-27T12:50:50.906Z,55.30
2018-08-27T12:51:50.871Z,55.98
2018-08-27T12:52:50.872Z,56.16